Time;durP1;ratioP1;P1;durP2;ratioP2;P2;SDS_P1;SDS_P2;PMS_P1;PMS_P2;Temp;Humidity;BMP_temperature;BMP_pressure;BME280_temperature;BME280_humidity;BME280_pressure;Samples;Min_cycle;Max_cycle;Signal;HPM_P1;HPM_P2
2022/04/04 00:02:48;;;;;;;11.30;6.10;;;;;;;1.00;48.73;99992.48;128004;1290;98823;-74
2022/04/04 00:05:51;;;;;;;11.10;6.10;;;;;;;0.97;48.86;99990.42;128067;1288;98055;-75
2022/04/04 00:08:54;;;;;;;11.20;6.10;;;;;;;0.93;48.93;99988.04;127992;1290;98120;-75
2022/04/04 00:11:57;;;;;;;14.30;6.90;;;;;;;0.89;48.94;99988.10;128060;1290;98597;-74
2022/04/04 00:14:59;;;;;;;12.50;6.70;;;;;;;0.86;48.91;99985.52;128128;1290;98826;-74
2022/04/04 00:18:07;;;;;;;16.20;7.80;;;;;;;0.81;48.89;99977.58;128001;1288;98032;-73
2022/04/04 00:21:10;;;;;;;15.70;7.10;;;;;;;0.77;49.00;99977.77;128318;1288;99079;-74
2022/04/04 00:24:13;;;;;;;11.60;5.70;;;;;;;0.74;48.93;99974.52;127993;1290;202726;-75
2022/04/04 00:27:15;;;;;;;10.80;5.80;;;;;;;0.71;49.18;99975.59;128091;1288;98251;-71
2022/04/04 00:30:18;;;;;;;10.40;5.50;;;;;;;0.68;49.17;99969.96;127910;1289;99284;-73
2022/04/04 00:33:21;;;;;;;11.50;6.10;;;;;;;0.66;49.33;99968.20;128223;1290;98102;-76
2022/04/04 00:36:23;;;;;;;12.30;5.70;;;;;;;0.64;49.18;99961.54;128250;1287;99305;-75
2022/04/04 00:39:26;;;;;;;11.50;5.80;;;;;;;0.65;49.17;99960.87;128298;1290;98352;-73
2022/04/04 00:42:29;;;;;;;9.40;5.80;;;;;;;0.67;49.27;99959.02;128151;1290;98017;-72
2022/04/04 00:45:31;;;;;;;10.10;5.60;;;;;;;0.67;49.40;99956.71;127968;1288;99187;-72
2022/04/04 00:48:35;;;;;;;12.10;6.30;;;;;;;0.68;49.51;99956.16;128467;1290;98449;-71
2022/04/04 00:51:38;;;;;;;11.20;6.20;;;;;;;0.73;49.76;99953.73;128341;1288;112644;-72
2022/04/04 00:54:41;;;;;;;11.80;6.20;;;;;;;0.78;49.77;99950.09;128131;1290;110629;-72
2022/04/04 00:57:44;;;;;;;12.00;6.60;;;;;;;0.81;49.71;99945.70;128044;1288;112424;-72
2022/04/04 01:00:48;;;;;;;12.10;6.60;;;;;;;0.84;49.69;99941.54;128039;1290;112338;-72
2022/04/04 01:03:51;;;;;;;13.50;7.20;;;;;;;0.87;49.59;99941.86;127880;1290;113060;-73
2022/04/04 01:06:54;;;;;;;11.90;6.60;;;;;;;0.88;49.75;99937.72;127914;1288;98278;-72
2022/04/04 01:09:57;;;;;;;11.40;6.50;;;;;;;0.93;49.83;99934.80;127777;1288;98104;-72
2022/04/04 01:13:00;;;;;;;12.30;6.10;;;;;;;0.98;49.88;99930.77;128156;1288;98794;-72
2022/04/04 01:16:03;;;;;;;11.70;6.70;;;;;;;1.03;49.87;99930.14;128092;1290;98026;-73
2022/04/04 01:19:06;;;;;;;11.90;6.80;;;;;;;1.06;49.81;99925.55;128164;1290;98027;-71
2022/04/04 01:22:10;;;;;;;12.60;6.70;;;;;;;1.07;49.86;99919.49;128351;1288;99219;-73
2022/04/04 01:25:13;;;;;;;13.40;7.30;;;;;;;1.09;49.88;99914.81;128331;1288;113119;-73
2022/04/04 01:28:16;;;;;;;12.10;7.10;;;;;;;1.10;50.14;99905.97;128038;1288;99117;-73
2022/04/04 01:31:19;;;;;;;12.20;6.70;;;;;;;1.11;49.96;99902.41;128183;1288;99294;-72
2022/04/04 01:34:23;;;;;;;10.90;6.20;;;;;;;1.10;50.25;99896.73;128279;1288;98167;-72
2022/04/04 01:37:25;;;;;;;13.20;6.90;;;;;;;1.06;50.24;99891.18;128065;1288;112339;-71
2022/04/04 01:40:28;;;;;;;13.00;6.70;;;;;;;1.01;50.35;99888.39;128028;1288;98076;-72
2022/04/04 01:43:31;;;;;;;10.60;6.30;;;;;;;0.94;50.24;99894.07;127947;1288;98227;-73
2022/04/04 01:46:35;;;;;;;12.20;6.60;;;;;;;0.87;50.39;99890.69;128164;1288;110889;-74
2022/04/04 01:49:37;;;;;;;12.70;7.10;;;;;;;0.81;50.38;99884.41;128228;1288;110893;-74
2022/04/04 01:52:40;;;;;;;14.90;6.90;;;;;;;0.76;50.70;99883.19;128061;1288;99309;-73
2022/04/04 01:55:43;;;;;;;14.50;7.40;;;;;;;0.69;50.74;99886.75;127952;1288;98091;-74
2022/04/04 01:58:46;;;;;;;12.40;6.50;;;;;;;0.64;50.83;99885.17;128213;1288;99313;-73
2022/04/04 02:01:49;;;;;;;12.30;7.00;;;;;;;0.60;50.73;99885.28;128276;1288;99212;-73
2022/04/04 02:04:52;;;;;;;12.30;7.00;;;;;;;0.57;50.82;99883.17;128072;1288;98655;-70
2022/04/04 02:07:54;;;;;;;11.70;6.80;;;;;;;0.53;50.90;99880.45;127696;1288;99765;-71
2022/04/04 02:10:59;;;;;;;12.30;7.10;;;;;;;0.50;50.99;99878.91;127721;1288;112498;-71
2022/04/04 02:14:03;;;;;;;12.40;6.70;;;;;;;0.45;51.10;99876.40;127802;1288;111800;-72
2022/04/04 02:17:07;;;;;;;13.10;6.90;;;;;;;0.41;51.34;99872.13;127731;1288;112964;-71
2022/04/04 02:20:11;;;;;;;12.00;6.60;;;;;;;0.35;51.31;99868.45;127908;1288;112417;-72
2022/04/04 02:23:17;;;;;;;12.20;6.90;;;;;;;0.32;51.51;99866.76;128125;1288;112319;-73
2022/04/04 02:26:20;;;;;;;11.00;6.30;;;;;;;0.29;51.51;99862.89;128117;1288;112244;-72
2022/04/04 02:29:23;;;;;;;14.90;7.10;;;;;;;0.27;51.55;99864.79;127962;1288;112486;-72
2022/04/04 02:32:26;;;;;;;14.20;6.80;;;;;;;0.23;51.93;99865.75;127962;1288;99095;-70
2022/04/04 02:35:29;;;;;;;12.20;7.10;;;;;;;0.20;51.79;99861.90;127960;1288;98238;-71
2022/04/04 02:38:31;;;;;;;13.90;7.50;;;;;;;0.19;51.73;99863.90;127968;1288;98629;-71
2022/04/04 02:41:34;;;;;;;11.60;6.30;;;;;;;0.16;51.96;99862.48;127784;1288;99089;-71
2022/04/04 02:44:37;;;;;;;11.20;6.30;;;;;;;0.15;51.99;99864.15;127840;1288;99180;-72
2022/04/04 02:47:40;;;;;;;12.00;6.30;;;;;;;0.13;52.02;99857.26;128000;1287;98012;-74
2022/04/04 02:50:43;;;;;;;10.70;6.00;;;;;;;0.12;52.25;99849.98;127943;1288;98791;-74
2022/04/04 02:53:45;;;;;;;10.10;6.00;;;;;;;0.10;52.25;99850.80;127972;1288;98034;-72
2022/04/04 02:56:48;;;;;;;13.40;6.80;;;;;;;0.08;52.38;99846.73;127819;1288;99222;-72
2022/04/04 02:59:51;;;;;;;12.80;6.50;;;;;;;0.07;52.46;99844.20;127971;1288;99172;-72
2022/04/04 03:02:55;;;;;;;11.50;6.90;;;;;;;0.04;52.54;99837.71;127983;1288;98090;-73
2022/04/04 03:05:58;;;;;;;11.10;6.10;;;;;;;0.03;52.63;99834.98;128231;1288;99197;-72
2022/04/04 03:09:01;;;;;;;11.00;6.30;;;;;;;0.04;52.66;99835.65;128095;1288;98743;-75
2022/04/04 03:12:05;;;;;;;12.20;6.60;;;;;;;0.01;52.70;99835.09;128243;1288;98019;-73
2022/04/04 03:15:11;;;;;;;10.10;6.40;;;;;;;-0.02;52.96;99825.86;127990;1288;112523;-73
2022/04/04 03:18:14;;;;;;;11.60;6.60;;;;;;;0.02;52.93;99829.99;128230;1288;112334;-73
2022/04/04 03:21:17;;;;;;;11.70;6.40;;;;;;;0.05;52.83;99836.09;127970;1288;98154;-72
2022/04/04 03:24:20;;;;;;;11.10;6.60;;;;;;;0.09;53.21;99836.18;128198;1288;110581;-73
2022/04/04 03:27:23;;;;;;;13.90;6.70;;;;;;;0.15;53.21;99834.77;128023;1288;98126;-72
2022/04/04 03:30:28;;;;;;;12.60;6.50;;;;;;;0.21;53.29;99833.86;128230;1288;98032;-73
2022/04/04 03:33:30;;;;;;;11.70;6.40;;;;;;;0.26;53.43;99834.73;128103;1288;112340;-72
2022/04/04 03:36:33;;;;;;;12.50;7.00;;;;;;;0.32;53.51;99837.34;128027;1288;99195;-70
2022/04/04 03:39:36;;;;;;;12.10;6.90;;;;;;;0.37;53.47;99834.04;127988;1288;98045;-72
2022/04/04 03:42:39;;;;;;;13.10;7.20;;;;;;;0.42;53.59;99830.77;128217;1288;98715;-72
2022/04/04 03:45:42;;;;;;;13.60;7.70;;;;;;;0.47;53.78;99824.83;128333;1288;98906;-72
2022/04/04 03:48:44;;;;;;;15.10;7.10;;;;;;;0.52;53.89;99821.02;128318;1288;98071;-72
2022/04/04 03:51:47;;;;;;;12.50;7.00;;;;;;;0.56;53.95;99813.41;128142;1288;99293;-73
2022/04/04 03:54:50;;;;;;;13.60;7.60;;;;;;;0.59;53.77;99810.77;127956;1288;98645;-72
2022/04/04 03:57:53;;;;;;;12.80;7.90;;;;;;;0.63;53.93;99811.70;127998;1288;99086;-72
2022/04/04 04:00:55;;;;;;;11.80;7.00;;;;;;;0.66;53.92;99815.73;127979;1288;99220;-74
2022/04/04 04:03:58;;;;;;;14.70;8.30;;;;;;;0.69;54.11;99821.80;128308;1287;98038;-73
2022/04/04 04:07:01;;;;;;;13.10;7.40;;;;;;;0.72;53.94;99820.23;128259;1288;99207;-73
2022/04/04 04:10:05;;;;;;;13.00;7.60;;;;;;;0.74;54.02;99815.70;128109;1288;108873;-73
2022/04/04 04:13:07;;;;;;;14.10;7.60;;;;;;;0.77;54.21;99814.80;128108;1288;108747;-73
2022/04/04 04:16:13;;;;;;;14.90;8.30;;;;;;;0.81;54.33;99812.34;128079;1288;99195;-73
2022/04/04 04:22:33;;;;;;;15.20;8.10;;;;;;;0.87;54.59;99807.73;128040;1288;107586;-73
2022/04/04 04:25:37;;;;;;;11.70;7.80;;;;;;;0.89;54.73;99808.77;127995;1288;98038;-72
2022/04/04 04:28:40;;;;;;;13.60;7.40;;;;;;;0.92;54.59;99805.80;128038;1287;107567;-72
2022/04/04 04:31:43;;;;;;;14.20;7.70;;;;;;;0.95;54.66;99804.02;128050;1288;109123;-73
2022/04/04 04:34:48;;;;;;;12.50;8.10;;;;;;;0.99;54.65;99811.27;127990;1288;99171;-73
2022/04/04 04:37:52;;;;;;;14.10;8.60;;;;;;;1.02;54.85;99814.23;128123;1288;108782;-73
2022/04/04 04:40:54;;;;;;;16.30;8.80;;;;;;;1.05;54.67;99816.31;127920;1288;108868;-72
2022/04/04 04:43:57;;;;;;;14.20;8.50;;;;;;;1.09;54.97;99810.23;127998;1288;98224;-72
2022/04/04 04:47:00;;;;;;;14.60;8.40;;;;;;;1.14;54.83;99810.45;128190;1288;98085;-73
2022/04/04 04:50:05;;;;;;;14.20;8.10;;;;;;;1.18;54.89;99807.17;128188;1288;98127;-72
2022/04/04 04:53:08;;;;;;;12.30;7.40;;;;;;;1.23;55.00;99805.67;128319;1288;108703;-73
2022/04/04 04:56:11;;;;;;;13.90;8.30;;;;;;;1.26;55.14;99801.89;128319;1287;98535;-73
2022/04/04 04:59:14;;;;;;;12.50;7.90;;;;;;;1.29;55.18;99806.46;128438;1287;99105;-72
2022/04/04 05:02:16;;;;;;;13.10;8.00;;;;;;;1.34;54.94;99802.98;128350;1287;99222;-73
2022/04/04 05:05:19;;;;;;;13.60;8.10;;;;;;;1.38;55.13;99801.45;128314;1287;98076;-72
2022/04/04 05:08:22;;;;;;;14.40;8.40;;;;;;;1.42;55.43;99799.28;128268;1287;99206;-70
2022/04/04 05:11:25;;;;;;;11.90;7.90;;;;;;;1.48;55.31;99803.02;128295;1287;98762;-75
2022/04/04 05:14:27;;;;;;;14.10;8.60;;;;;;;1.56;55.48;99800.70;128326;1287;98639;-70
2022/04/04 05:17:30;;;;;;;12.20;8.30;;;;;;;1.65;55.58;99799.56;128106;1287;99188;-71
2022/04/04 05:20:33;;;;;;;15.00;8.30;;;;;;;1.76;55.62;99803.74;128082;1288;98486;-70
2022/04/04 05:23:36;;;;;;;16.00;8.70;;;;;;;1.86;55.55;99800.90;128104;1286;99573;-71
2022/04/04 05:26:39;;;;;;;14.40;8.90;;;;;;;1.94;55.64;99798.92;128111;1287;98032;-71
2022/04/04 05:29:42;;;;;;;15.10;9.00;;;;;;;2.02;55.65;99792.56;128283;1287;98446;-71
2022/04/04 05:32:44;;;;;;;15.40;9.00;;;;;;;2.15;55.65;99786.77;128240;1287;99303;-70
2022/04/04 05:35:47;;;;;;;16.70;9.90;;;;;;;2.28;55.71;99784.56;128088;1287;98079;-71
2022/04/04 05:38:50;;;;;;;22.20;12.20;;;;;;;2.38;55.67;99781.71;128128;1287;99312;-71
2022/04/04 05:41:54;;;;;;;14.90;9.70;;;;;;;2.44;55.77;99782.05;128058;1287;98010;-71
2022/04/04 05:44:57;;;;;;;22.10;11.70;;;;;;;2.44;56.06;99784.84;128095;1287;98029;-70
2022/04/04 05:47:59;;;;;;;19.40;10.50;;;;;;;2.41;56.13;99788.56;128139;1287;98775;-71
2022/04/04 05:51:02;;;;;;;16.60;9.50;;;;;;;2.42;56.34;99791.83;128054;1287;98048;-70
2022/04/04 05:54:05;;;;;;;17.50;10.00;;;;;;;2.46;56.58;99793.64;128047;1286;98785;-70
2022/04/04 05:57:08;;;;;;;15.20;9.30;;;;;;;2.45;56.81;99794.60;128085;1287;98766;-70
2022/04/04 06:00:14;;;;;;;15.70;10.50;;;;;;;2.42;56.82;99792.84;127980;1287;97984;-70
2022/04/04 06:03:16;;;;;;;16.10;10.00;;;;;;;2.45;56.72;99798.27;128255;1287;98000;-71
2022/04/04 06:06:19;;;;;;;15.70;9.80;;;;;;;2.52;57.15;99793.73;128265;1287;98066;-71
2022/04/04 06:09:22;;;;;;;14.70;9.30;;;;;;;2.55;57.43;99797.17;128519;1287;99217;-70
2022/04/04 06:12:24;;;;;;;12.60;8.90;;;;;;;2.59;57.25;99793.90;128100;1287;98038;-70
2022/04/04 06:15:28;;;;;;;15.30;10.20;;;;;;;2.61;57.44;99795.17;128116;1288;98088;-70
2022/04/04 06:18:30;;;;;;;15.00;9.50;;;;;;;2.62;57.19;99790.02;128038;1288;98137;-71
2022/04/04 06:21:33;;;;;;;13.50;9.30;;;;;;;2.64;57.52;99788.10;127927;1287;99182;-69
2022/04/04 06:24:36;;;;;;;16.00;9.60;;;;;;;2.67;57.14;99793.29;127949;1288;98801;-71
2022/04/04 06:27:39;;;;;;;15.30;10.40;;;;;;;2.68;57.24;99793.05;127956;1288;98038;-69
2022/04/04 06:30:42;;;;;;;14.60;10.00;;;;;;;2.70;57.43;99793.57;127972;1288;97993;-70
2022/04/04 06:33:45;;;;;;;16.60;9.90;;;;;;;2.80;57.40;99793.39;127819;1288;99220;-70
2022/04/04 06:36:48;;;;;;;14.60;9.60;;;;;;;2.93;57.44;99792.09;127781;1288;98012;-71
2022/04/04 06:39:52;;;;;;;13.60;9.30;;;;;;;3.06;57.53;99785.61;127770;1288;99218;-70
2022/04/04 06:42:56;;;;;;;14.50;9.60;;;;;;;3.22;57.45;99781.30;127765;1288;99216;-68
2022/04/04 06:46:00;;;;;;;13.60;9.70;;;;;;;3.37;57.64;99784.73;128167;1288;99177;-68
2022/04/04 06:49:02;;;;;;;12.70;8.80;;;;;;;3.45;57.45;99782.09;127934;1288;98116;-71
2022/04/04 06:52:06;;;;;;;14.90;9.30;;;;;;;3.54;57.55;99778.06;128034;1287;98106;-70
2022/04/04 06:55:11;;;;;;;12.90;9.20;;;;;;;3.71;57.35;99780.31;128481;1287;98026;-70
2022/04/04 06:58:14;;;;;;;16.10;9.80;;;;;;;3.87;57.37;99777.59;128163;1287;98714;-69
2022/04/04 07:01:17;;;;;;;14.90;9.80;;;;;;;4.02;57.24;99774.00;127919;1287;98103;-69
2022/04/04 07:04:20;;;;;;;15.20;10.00;;;;;;;4.14;57.43;99779.88;128022;1287;98093;-69
2022/04/04 07:07:24;;;;;;;14.50;9.80;;;;;;;4.26;57.23;99773.29;128462;1287;98029;-70
2022/04/04 07:10:27;;;;;;;13.20;9.40;;;;;;;4.35;57.22;99768.67;128126;1288;99184;-69
2022/04/04 07:13:31;;;;;;;14.70;10.50;;;;;;;4.37;57.20;99766.04;128409;1287;98023;-71
2022/04/04 07:16:34;;;;;;;14.80;10.50;;;;;;;4.36;57.24;99764.06;128276;1287;98035;-77
2022/04/04 07:19:36;;;;;;;16.00;10.20;;;;;;;4.32;57.23;99758.48;128458;1287;99194;-71
2022/04/04 07:22:41;;;;;;;15.20;9.90;;;;;;;4.33;57.36;99754.05;128019;1287;98039;-69
2022/04/04 07:25:43;;;;;;;14.70;9.90;;;;;;;4.32;57.47;99751.95;127985;1287;98023;-70
2022/04/04 07:28:47;;;;;;;20.70;13.20;;;;;;;4.34;57.45;99752.74;128248;1287;98526;-70
2022/04/04 07:31:50;;;;;;;16.50;11.00;;;;;;;4.38;57.48;99746.95;128172;1287;98705;-69
2022/04/04 07:34:53;;;;;;;14.50;10.50;;;;;;;4.48;57.54;99748.60;128286;1287;98015;-70
2022/04/04 07:37:56;;;;;;;16.90;11.40;;;;;;;4.62;57.60;99744.94;128283;1287;98036;-70
2022/04/04 07:40:58;;;;;;;18.60;10.90;;;;;;;4.78;57.61;99739.94;128159;1287;99203;-70
2022/04/04 07:44:01;;;;;;;17.00;10.80;;;;;;;5.11;57.57;99734.11;128083;1287;98016;-70
2022/04/04 07:47:05;;;;;;;15.50;10.60;;;;;;;5.56;57.29;99731.14;128165;1287;99083;-70
2022/04/04 07:50:11;;;;;;;14.40;10.10;;;;;;;5.82;57.03;99728.67;128260;1286;98817;-69
2022/04/04 07:53:14;;;;;;;13.70;9.30;;;;;;;5.86;56.59;99731.36;127967;1288;98021;-68
2022/04/04 07:56:19;;;;;;;12.80;9.40;;;;;;;5.84;56.56;99728.22;127995;1288;99199;-70
2022/04/04 07:59:27;;;;;;;17.10;11.60;;;;;;;6.02;56.74;99724.91;128137;1287;98172;-71
2022/04/04 08:02:32;;;;;;;13.80;9.60;;;;;;;6.23;56.63;99724.40;128248;1287;99079;-74
2022/04/04 08:05:35;;;;;;;11.70;8.60;;;;;;;6.33;56.27;99721.77;128252;1287;99190;-76
2022/04/04 08:08:37;;;;;;;11.80;8.30;;;;;;;6.31;55.92;99715.92;128532;1287;98020;-71
2022/04/04 08:11:41;;;;;;;13.00;8.70;;;;;;;6.38;56.31;99714.80;128223;1287;98035;-71
2022/04/04 08:14:47;;;;;;;12.50;7.80;;;;;;;6.49;55.79;99713.38;128013;1289;99201;-71
2022/04/04 08:17:50;;;;;;;13.40;9.20;;;;;;;6.56;55.66;99713.97;128094;1288;98149;-71
2022/04/04 08:20:54;;;;;;;12.50;8.80;;;;;;;6.64;55.48;99709.13;128161;1288;98122;-70
2022/04/04 08:23:57;;;;;;;11.90;7.90;;;;;;;6.67;55.73;99711.16;128196;1288;99290;-71
2022/04/04 08:27:00;;;;;;;10.10;7.20;;;;;;;6.79;55.75;99706.46;128102;1288;99086;-71
2022/04/04 08:30:06;;;;;;;14.70;10.20;;;;;;;6.91;55.16;99702.61;127904;1288;99079;-70
2022/04/04 08:33:08;;;;;;;11.00;7.80;;;;;;;6.99;55.34;99703.27;128129;1288;98044;-71
2022/04/04 08:36:11;;;;;;;11.10;7.40;;;;;;;7.02;55.16;99694.52;128190;1288;98498;-71
2022/04/04 08:39:14;;;;;;;13.00;7.70;;;;;;;7.11;55.40;99694.55;128005;1288;99190;-70
2022/04/04 08:42:20;;;;;;;8.30;6.30;;;;;;;7.37;55.37;99686.96;127903;1288;98763;-74
2022/04/04 08:45:23;;;;;;;9.00;7.20;;;;;;;7.61;55.24;99686.67;128118;1288;100737;-71
2022/04/04 08:48:27;;;;;;;10.40;7.50;;;;;;;7.74;54.66;99680.92;128097;1288;98101;-73
2022/04/04 08:51:30;;;;;;;9.80;7.00;;;;;;;7.73;54.13;99679.48;128118;1288;98446;-76
2022/04/04 08:54:33;;;;;;;8.80;6.60;;;;;;;7.73;54.19;99671.88;128339;1288;98102;-71
2022/04/04 08:57:35;;;;;;;10.30;6.70;;;;;;;7.76;54.40;99665.54;128095;1287;98130;-71
2022/04/04 09:00:38;;;;;;;9.00;7.10;;;;;;;7.85;54.53;99662.16;128276;1287;98783;-71
2022/04/04 09:03:41;;;;;;;10.60;7.00;;;;;;;8.05;54.38;99654.18;128395;1287;98009;-72
2022/04/04 09:06:50;;;;;;;9.40;6.50;;;;;;;8.23;53.88;99651.58;128444;1287;98145;-71
2022/04/04 09:09:53;;;;;;;10.10;6.70;;;;;;;8.30;53.93;99647.89;128097;1287;98813;-70
2022/04/04 09:13:05;;;;;;;10.80;6.80;;;;;;;8.32;53.52;99644.45;127897;1287;99200;-70
2022/04/04 09:16:08;;;;;;;;;;;;;;;8.26;53.00;99637.06;128146;1287;98068;-72
2022/04/04 09:19:12;;;;;;;8.90;6.10;;;;;;;8.25;51.71;99636.48;128388;1288;99237;-69
2022/04/04 09:22:18;;;;;;;7.70;5.60;;;;;;;8.19;53.11;99634.94;128098;1288;99198;-71
2022/04/04 09:25:31;;;;;;;7.90;5.10;;;;;;;8.40;52.95;99625.19;128249;1287;98531;-71
2022/04/04 09:28:34;;;;;;;9.40;5.30;;;;;;;8.61;52.95;99621.02;128123;1288;98067;-69
2022/04/04 09:31:51;;;;;;;8.10;5.20;;;;;;;8.70;52.56;99612.64;127881;1288;99300;-70
2022/04/04 09:35:01;;;;;;;7.20;4.80;;;;;;;8.74;52.79;99612.94;127949;1287;98078;-70
2022/04/04 09:38:13;;;;;;;7.30;5.90;;;;;;;8.80;52.49;99608.29;128131;1288;99085;-69
2022/04/04 09:41:24;;;;;;;7.40;5.50;;;;;;;8.98;52.32;99596.77;128076;1288;98007;-70
2022/04/04 09:44:27;;;;;;;6.80;4.90;;;;;;;9.21;52.28;99587.49;127948;1288;98141;-70
2022/04/04 09:47:54;;;;;;;7.30;5.00;;;;;;;9.31;52.26;99578.52;127989;1288;98987;-71
2022/04/04 09:50:57;;;;;;;5.90;4.60;;;;;;;9.39;52.17;99574.95;127916;1288;98705;-73
2022/04/04 09:54:03;;;;;;;6.50;4.40;;;;;;;9.46;51.85;99573.89;128269;1288;98470;-73
2022/04/04 09:57:13;;;;;;;7.30;5.60;;;;;;;9.46;51.28;99570.73;128195;1288;99216;-73
2022/04/04 10:00:19;;;;;;;8.60;5.30;;;;;;;9.36;50.96;99573.86;128088;1288;99194;-72
2022/04/04 10:03:23;;;;;;;5.50;4.30;;;;;;;9.30;51.65;99565.83;128171;1288;99116;-72
2022/04/04 10:06:28;;;;;;;5.70;4.30;;;;;;;9.34;51.65;99561.69;127939;1288;98023;-71
2022/04/04 10:09:31;;;;;;;5.60;4.50;;;;;;;9.43;51.36;99557.88;127901;1288;98012;-72
2022/04/04 10:12:36;;;;;;;5.80;4.30;;;;;;;9.49;51.30;99558.73;128126;1288;98624;-70
2022/04/04 10:15:38;;;;;;;8.20;5.70;;;;;;;9.43;50.84;99554.36;128041;1287;99190;-71
2022/04/04 10:18:44;;;;;;;7.80;5.30;;;;;;;9.41;51.00;99551.51;128081;1287;98538;-71
2022/04/04 10:21:47;;;;;;;7.80;5.00;;;;;;;9.43;50.71;99543.86;128174;1287;98292;-70
2022/04/04 10:24:50;;;;;;;8.60;5.80;;;;;;;9.41;50.44;99538.33;127826;1288;98046;-71
2022/04/04 10:27:53;;;;;;;6.90;4.60;;;;;;;9.29;50.47;99533.95;127902;1288;98839;-72
2022/04/04 10:30:59;;;;;;;7.40;4.90;;;;;;;9.22;50.53;99534.33;127832;1287;98140;-71
2022/04/04 10:34:12;;;;;;;53.90;34.80;;;;;;;9.27;50.58;99531.00;127930;1288;99224;-72
2022/04/04 10:37:15;;;;;;;13.70;11.00;;;;;;;9.38;50.55;99524.83;128036;1288;98099;-71
2022/04/04 10:40:22;;;;;;;9.70;7.40;;;;;;;9.50;50.25;99523.27;127823;1288;98916;-71
2022/04/04 10:43:25;;;;;;;11.40;7.30;;;;;;;9.53;50.34;99520.58;127814;1288;98702;-71
2022/04/04 10:46:27;;;;;;;8.80;5.90;;;;;;;9.62;50.66;99521.09;127845;1288;99083;-71
2022/04/04 10:49:36;;;;;;;9.00;5.60;;;;;;;9.66;50.21;99514.21;127898;1288;99296;-70
2022/04/04 10:52:41;;;;;;;29.50;20.60;;;;;;;9.70;50.13;99509.77;127908;1288;98658;-72
2022/04/04 10:55:48;;;;;;;37.90;25.00;;;;;;;9.75;50.00;99508.67;128033;1288;98121;-70
2022/04/04 10:58:53;;;;;;;13.70;9.20;;;;;;;9.73;50.01;99505.85;128067;1288;99247;-71
2022/04/04 11:09:02;;;;;;;7.40;6.60;;;;;;;9.55;49.91;99503.47;128857;1285;99113;-73
2022/04/04 11:12:12;;;;;;;9.90;7.10;;;;;;;9.49;50.04;99501.73;128647;1285;99179;-71
2022/04/04 11:15:16;;;;;;;9.70;7.90;;;;;;;9.41;50.08;99499.66;128565;1285;99287;-71
2022/04/04 11:18:19;;;;;;;9.90;8.10;;;;;;;9.32;49.94;99493.89;128275;1285;98209;-71
2022/04/04 11:21:42;;;;;;;9.40;7.60;;;;;;;9.29;50.26;99487.85;128129;1285;98549;-71
2022/04/04 11:24:50;;;;;;;9.10;7.20;;;;;;;9.20;50.06;99486.27;128264;1285;97994;-71
2022/04/04 11:27:52;;;;;;;9.70;7.00;;;;;;;9.15;50.35;99481.48;128160;1284;99866;-71
2022/04/04 11:31:03;;;;;;;10.70;7.70;;;;;;;9.24;50.59;99475.04;128377;1284;98622;-72
2022/04/04 11:34:13;;;;;;;11.90;7.40;;;;;;;9.29;50.12;99474.68;128366;1284;98026;-72
2022/04/04 11:37:18;;;;;;;8.40;6.60;;;;;;;9.32;49.55;99462.86;128265;1284;99076;-72
2022/04/04 11:40:25;;;;;;;15.00;10.60;;;;;;;9.43;49.63;99456.13;128134;1284;98012;-71
2022/04/04 11:43:32;;;;;;;10.90;7.90;;;;;;;9.51;49.36;99451.80;128394;1284;98121;-71
2022/04/04 11:46:35;;;;;;;10.10;7.10;;;;;;;9.55;49.57;99453.77;128337;1284;98694;-71
2022/04/04 11:49:39;;;;;;;8.20;6.50;;;;;;;9.66;49.41;99448.75;128206;1285;98706;-71
2022/04/04 11:52:54;;;;;;;8.70;6.80;;;;;;;9.68;49.25;99439.82;128326;1285;98038;-71
2022/04/04 11:56:02;;;;;;;22.50;16.00;;;;;;;9.67;49.08;99436.04;128426;1285;98039;-73
2022/04/04 11:59:07;;;;;;;11.30;8.50;;;;;;;9.59;48.88;99430.33;128180;1285;99162;-72
2022/04/04 12:02:11;;;;;;;9.70;7.70;;;;;;;9.49;49.00;99427.27;128149;1285;98133;-71
2022/04/04 12:05:14;;;;;;;8.60;7.00;;;;;;;9.38;49.04;99420.08;128175;1285;98776;-71
2022/04/04 12:08:19;;;;;;;9.30;7.70;;;;;;;9.31;49.42;99413.42;128087;1285;98026;-71
2022/04/04 12:11:28;;;;;;;13.40;10.30;;;;;;;9.33;49.31;99405.39;128178;1285;99274;-71
2022/04/04 12:14:33;;;;;;;68.10;42.50;;;;;;;9.38;49.59;99397.21;128321;1285;98097;-71
2022/04/04 12:17:35;;;;;;;38.40;24.40;;;;;;;9.42;48.85;99388.42;128147;1285;98750;-71
2022/04/04 12:20:40;;;;;;;14.60;10.90;;;;;;;9.41;48.51;99380.96;128101;1285;99179;-71
2022/04/04 12:27:09;;;;;;;24.30;20.20;;;;;;;9.37;48.55;99374.46;128206;1285;99177;-71
2022/04/04 12:30:13;;;;;;;33.80;25.20;;;;;;;9.28;48.25;99368.89;128156;1285;98000;-71
2022/04/04 12:33:16;;;;;;;55.20;40.90;;;;;;;9.28;48.18;99351.95;128133;1285;98026;-70
2022/04/04 12:36:28;;;;;;;17.80;13.40;;;;;;;9.43;48.35;99350.71;128100;1285;99070;-70
2022/04/04 12:39:32;;;;;;;17.40;13.50;;;;;;;9.43;47.42;99344.33;128176;1285;98022;-69
2022/04/04 12:42:34;;;;;;;12.30;10.40;;;;;;;9.43;47.58;99345.16;128120;1285;98874;-72
2022/04/04 12:45:46;;;;;;;14.30;11.10;;;;;;;9.46;47.54;99332.27;128293;1285;98835;-72
2022/04/04 12:48:49;;;;;;;22.90;17.20;;;;;;;9.49;47.33;99323.15;128325;1285;98102;-69
2022/04/04 12:51:55;;;;;;;25.00;18.80;;;;;;;9.61;47.29;99319.34;128167;1285;98044;-70
2022/04/04 12:55:12;;;;;;;28.50;19.70;;;;;;;9.71;47.07;99312.70;128239;1285;98015;-71
2022/04/04 12:58:23;;;;;;;25.40;16.40;;;;;;;9.70;46.28;99309.45;128319;1285;98759;-71
2022/04/04 13:01:26;;;;;;;17.50;12.60;;;;;;;9.60;47.07;99300.59;128288;1285;98064;-70
2022/04/04 13:04:30;;;;;;;50.60;31.30;;;;;;;9.60;46.85;99290.07;128332;1285;98002;-71
2022/04/04 13:07:33;;;;;;;35.00;20.50;;;;;;;9.66;46.52;99282.63;128459;1285;99194;-70
2022/04/04 13:10:36;;;;;;;11.70;8.20;;;;;;;9.74;46.43;99276.61;128354;1285;99027;-71
2022/04/04 13:14:00;;;;;;;7.40;6.00;;;;;;;9.74;46.35;99267.18;128502;1285;98528;-71
2022/04/04 13:17:05;;;;;;;8.30;6.80;;;;;;;9.70;46.31;99264.09;128340;1285;98094;-71
2022/04/04 13:20:12;;;;;;;7.80;5.20;;;;;;;9.77;46.45;99257.09;128740;1285;99191;-71
2022/04/04 13:23:15;;;;;;;6.60;4.70;;;;;;;9.87;46.03;99254.39;128329;1287;98089;-71
2022/04/04 13:26:17;;;;;;;6.30;4.50;;;;;;;9.87;45.77;99253.67;128217;1288;98109;-71
2022/04/04 13:29:21;;;;;;;5.50;4.50;;;;;;;9.87;45.61;99241.83;128256;1287;98786;-71
2022/04/04 13:32:24;;;;;;;6.10;4.40;;;;;;;9.96;46.30;99238.30;128171;1287;99210;-70
2022/04/04 13:35:26;;;;;;;5.60;4.50;;;;;;;10.06;45.74;99220.31;128143;1287;98038;-71
2022/04/04 13:38:29;;;;;;;5.80;4.30;;;;;;;10.13;45.65;99212.13;128122;1287;98026;-70
2022/04/04 13:41:34;;;;;;;8.30;4.50;;;;;;;10.25;45.46;99201.06;128222;1287;98032;-71
2022/04/04 13:44:36;;;;;;;6.00;4.10;;;;;;;10.29;45.18;99194.35;128672;1285;98003;-71
2022/04/04 13:47:39;;;;;;;5.80;4.00;;;;;;;10.34;45.03;99186.30;128652;1285;98470;-71
2022/04/04 13:50:42;;;;;;;8.80;7.40;;;;;;;10.35;44.83;99184.83;128562;1285;98554;-70
2022/04/04 13:53:45;;;;;;;4.80;4.20;;;;;;;10.30;43.50;99175.59;128006;1287;99219;-68
2022/04/04 13:56:48;;;;;;;4.70;4.20;;;;;;;10.22;43.74;99170.80;128021;1287;98033;-71
2022/04/04 13:59:51;;;;;;;5.10;3.70;;;;;;;10.20;44.46;99164.90;128193;1285;99215;-71
2022/04/04 14:02:53;;;;;;;5.10;4.20;;;;;;;10.20;43.87;99161.73;128301;1285;97990;-72
2022/04/04 14:05:59;;;;;;;6.80;4.20;;;;;;;10.15;44.06;99162.72;128119;1285;98357;-71
2022/04/04 14:09:02;;;;;;;9.40;5.90;;;;;;;10.15;44.04;99156.19;128187;1285;97991;-71
2022/04/04 14:12:06;;;;;;;4.70;4.00;;;;;;;10.14;43.83;99149.73;128166;1285;98362;-70
2022/04/04 14:15:10;;;;;;;23.60;19.20;;;;;;;10.11;43.44;99143.11;128269;1285;99203;-70
2022/04/04 14:18:14;;;;;;;6.20;5.10;;;;;;;10.07;43.85;99131.52;128426;1285;98088;-71
2022/04/04 14:21:19;;;;;;;5.20;3.80;;;;;;;10.15;44.40;99126.87;128065;1285;99206;-70
2022/04/04 14:24:22;;;;;;;4.60;3.40;;;;;;;10.19;43.43;99116.06;128332;1285;98804;-70
2022/04/04 14:27:25;;;;;;;5.30;3.60;;;;;;;10.17;44.01;99111.31;128099;1285;98092;-71
2022/04/04 14:30:28;;;;;;;4.80;3.60;;;;;;;10.16;43.54;99105.73;128074;1285;98086;-70